M I D A S
Marine Information and Data Acquisition System
Tripno 1747 of the Zeeleeuw from 2009-08-12 06:34:27 to 2009-08-12 12:35:58
Back to CruiseResearch ActivitiesStationsMapUnderway DataData graphs

EquipmentUnitsComment
TimeDGPSUTC
LatitudeDGPSDM.mWGS84
LongitudeDGPSDM.mWGS84
HeadingGyrodeg 
SOGDGPSknotsSpeed over ground
COGDGPSdegCourse over ground
DepthEcho soundermeters200 kHz
Missing or incorrect values are displayed as -999
Navigation data collected by the RV Zeeleeuw from 2009-08-12 06:28:51 to 2009-08-12 12:41:58
Time Latitude Longitude Heading SOG COG Depth
2009-08-12 06:29:55 51°13.686 2°55.91 127.4 0.1 196 9.6
2009-08-12 06:30:55 51°13.686 2°55.909 127.3 0.1 185 9.6
2009-08-12 06:31:55 51°13.689 2°55.91 127.5 -999 240 9.5
2009-08-12 06:32:55 51°13.689 2°55.91 127.8 -999 59 9.5
2009-08-12 06:33:55 51°13.689 2°55.911 127.8 -999 318 9.5
2009-08-12 06:34:55 51°13.688 2°55.911 127.9 -999 179 9.5
2009-08-12 06:35:55 51°13.686 2°55.91 128.3 -999 264 9.4
2009-08-12 06:36:55 51°13.687 2°55.911 128.3 -999 158 9.5
2009-08-12 06:37:55 51°13.686 2°55.91 119.7 0.1 192 9.4
2009-08-12 06:38:55 51°13.685 2°55.908 109.4 0.4 288 9.4
2009-08-12 06:39:59 51°13.696 2°55.851 99.1 2.8 282 -999
2009-08-12 06:40:59 51°13.699 2°55.783 79.8 2 270 -999
2009-08-12 06:41:57 51°13.697 2°55.766 43.6 1.2 234 12.9
2009-08-12 06:42:56 51°13.702 2°55.752 359.3 2.1 349 13.3
2009-08-12 06:43:55 51°13.749 2°55.709 327.7 4.2 327 12.6
2009-08-12 06:44:55 51°13.813 2°55.647 333.5 4.6 332 12.5
2009-08-12 06:45:55 51°13.877 2°55.629 14.4 3.7 11 11
2009-08-12 06:46:55 51°13.93 2°55.629 349.2 2.7 350 12
2009-08-12 06:47:55 51°13.966 2°55.611 333.3 2 335 12
2009-08-12 06:48:55 51°14.011 2°55.568 325.4 4.7 324 12.3
2009-08-12 06:49:55 51°14.095 2°55.463 323.6 7.7 322 12.1
2009-08-12 06:50:55 51°14.203 2°55.33 322.4 8.4 321 12.1
2009-08-12 06:51:55 51°14.304 2°55.162 311.7 9.2 310 11.4
2009-08-12 06:52:55 51°14.42 2°54.978 326.8 10.5 327 11.2
2009-08-12 06:53:55 51°14.579 2°54.826 331.8 11.6 329 10.7
2009-08-12 06:54:55 51°14.747 2°54.671 330.6 11.5 329 10.5
2009-08-12 06:55:55 51°14.916 2°54.527 333.3 11.6 332 11
2009-08-12 06:56:55 51°15.086 2°54.384 332.3 11.5 332 11.4
2009-08-12 06:57:55 51°15.253 2°54.24 332.5 11.4 332 10.6
2009-08-12 06:58:55 51°15.42 2°54.095 332.4 11.5 331 10.7
2009-08-12 06:59:55 51°15.588 2°53.949 332.5 11.4 332 11
2009-08-12 07:00:55 51°15.754 2°53.801 332.3 11.5 332 11.8
2009-08-12 07:01:55 51°15.922 2°53.654 331 11.5 330 12.3
2009-08-12 07:02:56 51°16.093 2°53.505 332.2 11.6 332 12.3
2009-08-12 07:03:55 51°16.262 2°53.364 333 11.7 333 12.6
2009-08-12 07:04:56 51°16.436 2°53.216 332 11.6 332 12.5
2009-08-12 07:05:55 51°16.603 2°53.075 332.7 11.6 333 12.3
2009-08-12 07:06:56 51°16.776 2°52.928 332.8 11.6 332 10.9
2009-08-12 07:07:56 51°16.941 2°52.771 327.8 11.6 327 10.1
2009-08-12 07:08:56 51°17.104 2°52.607 328.1 11.6 327 10.1
2009-08-12 07:09:56 51°17.265 2°52.439 327.4 11.6 327 10.7
2009-08-12 07:10:56 51°17.426 2°52.268 324.9 11.5 322 11.2
2009-08-12 07:11:56 51°17.561 2°52.053 311.4 11.6 310 11.5
2009-08-12 07:12:55 51°17.68 2°51.819 308.6 11.6 309 10.5
2009-08-12 07:13:55 51°17.799 2°51.579 308.9 11.6 309 10.9
2009-08-12 07:14:56 51°17.924 2°51.337 310.1 11.6 309 11.1
2009-08-12 07:15:56 51°18.048 2°51.099 309.7 11.7 309 12.7
2009-08-12 07:16:56 51°18.171 2°50.861 309.9 11.7 310 13.3
2009-08-12 07:17:55 51°18.291 2°50.626 309.9 11.6 309 14
2009-08-12 07:18:56 51°18.416 2°50.383 310.6 11.6 310 14.6
2009-08-12 07:19:55 51°18.537 2°50.151 310.7 11.5 310 14.6
2009-08-12 07:20:56 51°18.659 2°49.91 308.9 11.5 308 13.4
2009-08-12 07:21:55 51°18.779 2°49.678 310.4 11.6 309 11.8
2009-08-12 07:22:56 51°18.903 2°49.433 310.1 11.7 309 11.5
2009-08-12 07:23:56 51°19.024 2°49.189 310.2 11.8 308 12.6
2009-08-12 07:24:56 51°19.147 2°48.945 310.2 11.7 309 14.6
2009-08-12 07:25:56 51°19.27 2°48.701 310.3 11.8 309 16.4
2009-08-12 07:26:55 51°19.393 2°48.462 310.7 11.8 309 18.5
2009-08-12 07:27:56 51°19.517 2°48.221 309.9 11.4 308 20.5
2009-08-12 07:28:55 51°19.636 2°47.988 310.1 11.6 310 22
2009-08-12 07:29:56 51°19.761 2°47.746 310.3 11.6 309 22.3
2009-08-12 07:30:55 51°19.881 2°47.51 309.8 11.7 309 21.5
2009-08-12 07:31:56 51°20.007 2°47.265 309.6 11.6 309 21
2009-08-12 07:32:56 51°20.131 2°47.025 310.3 11.8 309 18.9
2009-08-12 07:33:56 51°20.253 2°46.783 310 11.7 308 16.8
2009-08-12 07:34:56 51°20.374 2°46.541 310.1 11.7 308 15.3
2009-08-12 07:35:55 51°20.495 2°46.3 310.9 11.9 309 19.6
2009-08-12 07:36:56 51°20.622 2°46.052 310.7 11.7 309 21.1
2009-08-12 07:37:56 51°20.769 2°45.853 328.2 11.6 327 25.3
2009-08-12 07:38:56 51°20.938 2°45.699 333.1 11.5 331 24.9
2009-08-12 07:39:56 51°21.102 2°45.542 329.6 11.5 326 26.2
2009-08-12 07:40:55 51°21.254 2°45.364 325.3 11.6 323 25.8
2009-08-12 07:41:56 51°21.41 2°45.171 325.9 11.6 324 24.7
2009-08-12 07:42:56 51°21.568 2°44.985 328.2 11.9 326 22.9
2009-08-12 07:43:56 51°21.734 2°44.815 327.8 11.9 325 21.9
2009-08-12 07:44:55 51°21.885 2°44.621 321.7 11.8 320 23.1
2009-08-12 07:45:56 51°22.022 2°44.43 320.8 9.3 319 23.2
2009-08-12 07:46:55 51°22.111 2°44.313 319.6 5.8 320 21.7
2009-08-12 07:47:56 51°22.182 2°44.216 320.8 6.5 321 24.2
2009-08-12 07:48:56 51°22.274 2°44.095 321.6 6.5 322 22.3
2009-08-12 07:49:56 51°22.349 2°43.996 320.6 5.5 320 25.7
2009-08-12 07:50:56 51°22.417 2°43.905 320.1 5.2 320 26.2
2009-08-12 07:51:55 51°22.482 2°43.816 321.6 5.2 320 26.2
2009-08-12 07:52:56 51°22.611 2°43.713 349.2 10.7 347 26.5
2009-08-12 07:53:55 51°22.782 2°43.772 34.1 11.1 32 26.3
2009-08-12 07:54:56 51°22.937 2°43.948 41.5 11.3 37 26.3
2009-08-12 07:55:56 51°23.084 2°44.14 43.3 11.3 39 26.9
2009-08-12 07:56:55 51°23.23 2°44.325 41.4 11.3 40 27.2
2009-08-12 07:57:56 51°23.371 2°44.532 46.2 11.3 44 25.2
2009-08-12 07:58:56 51°23.508 2°44.739 46.7 11.2 43 26.4
2009-08-12 07:59:56 51°23.644 2°44.943 47 11.3 44 25.6
2009-08-12 08:00:56 51°23.78 2°45.146 46.4 11.2 45 26.8
2009-08-12 08:01:56 51°23.911 2°45.36 50.3 11.3 46 26.4
2009-08-12 08:02:55 51°24.039 2°45.574 50.2 11.3 46 26.1
2009-08-12 08:03:56 51°24.173 2°45.794 49.8 11.3 46 25.8
2009-08-12 08:04:56 51°24.306 2°46.006 48.9 11.3 45 26.4
2009-08-12 08:05:56 51°24.439 2°46.221 49.3 11.4 45 26.1
2009-08-12 08:06:56 51°24.572 2°46.435 49.4 11.4 47 28
2009-08-12 08:07:56 51°24.703 2°46.65 49.3 11.3 46 28.8
2009-08-12 08:08:56 51°24.834 2°46.866 50 11.4 48 25.9
2009-08-12 08:09:56 51°24.966 2°47.084 49.4 11.4 48 26.5
2009-08-12 08:10:56 51°25.1 2°47.3 48.7 11.5 45 25
2009-08-12 08:11:56 51°25.236 2°47.511 46.4 11.3 42 24.6
2009-08-12 08:12:56 51°25.376 2°47.71 45.5 11.2 41 25.5
2009-08-12 08:13:56 51°25.518 2°47.907 45.8 11.3 41 23.7
2009-08-12 08:14:56 51°25.66 2°48.104 44.2 11.3 40 23.1
2009-08-12 08:15:56 51°25.763 2°48.243 44 6.2 38 23.2
2009-08-12 08:16:56 51°25.839 2°48.324 37.3 5.1 31 23
2009-08-12 08:17:56 51°25.905 2°48.398 44.9 4.7 39 23
2009-08-12 08:18:56 51°25.964 2°48.476 42.7 4.6 35 23.2
2009-08-12 08:19:56 51°26.016 2°48.501 8.5 1.7 359 23.1
2009-08-12 08:20:56 51°26.034 2°48.498 350.7 0.9 349 23.1
2009-08-12 08:21:56 51°26.045 2°48.495 337.9 0.5 -999 23
2009-08-12 08:22:56 51°26.05 2°48.497 341.4 0.2 27 23.3
2009-08-12 08:23:56 51°26.052 2°48.501 357.3 0.2 83 23.1
2009-08-12 08:24:56 51°26.052 2°48.504 11.8 0.1 180 23.2
2009-08-12 08:25:56 51°26.05 2°48.504 22 0.1 195 23.2
2009-08-12 08:26:56 51°26.049 2°48.503 29.3 0.1 232 23
2009-08-12 08:27:56 51°26.048 2°48.501 36.2 0.1 233 23.1
2009-08-12 08:28:56 51°26.046 2°48.498 42.6 0.2 260 23.1
2009-08-12 08:29:56 51°26.046 2°48.495 47.4 0.1 258 23.1
2009-08-12 08:30:56 51°26.051 2°48.5 47.7 1 38 23
2009-08-12 08:31:56 51°26.099 2°48.557 41.8 5.9 37 23.1
2009-08-12 08:32:56 51°26.191 2°48.672 43.4 7.5 37 23.3
2009-08-12 08:33:56 51°26.293 2°48.793 40 7.7 35 22.8
2009-08-12 08:34:56 51°26.398 2°48.911 40.2 7.7 35 21.4
2009-08-12 08:35:56 51°26.504 2°49.033 40 7.8 35 16.8
2009-08-12 08:36:56 51°26.607 2°49.161 44.1 7.8 40 20.3
2009-08-12 08:37:56 51°26.706 2°49.298 46.3 7.9 42 20.2
2009-08-12 08:38:56 51°26.794 2°49.421 44.7 5.5 39 18.3
2009-08-12 08:39:56 51°26.841 2°49.464 12.4 1.5 8 17.8
2009-08-12 08:40:56 51°26.86 2°49.462 345.6 0.9 351 19.2
2009-08-12 08:41:56 51°26.873 2°49.46 335.4 0.7 6 19.8
2009-08-12 08:42:56 51°26.883 2°49.46 331.1 0.5 8 20.1
2009-08-12 08:43:56 51°26.89 2°49.463 330.6 0.4 16 20.2
2009-08-12 08:44:56 51°26.897 2°49.466 331.9 0.4 28 20.7
2009-08-12 08:45:56 51°26.904 2°49.472 337.6 0.4 35 20.7
2009-08-12 08:46:56 51°26.908 2°49.478 341.9 0.3 49 20.7
2009-08-12 08:47:56 51°26.91 2°49.484 345.2 0.2 55 20.7
2009-08-12 08:48:56 51°26.911 2°49.491 351.8 0.2 78 20.6
2009-08-12 08:49:56 51°26.911 2°49.496 359.7 0.2 96 20.8
2009-08-12 08:50:56 51°26.913 2°49.501 6.6 0.7 15 20.8
2009-08-12 08:51:56 51°26.938 2°49.488 327.4 2.4 324 21
2009-08-12 08:52:56 51°26.955 2°49.416 263.6 3.4 262 21.9
2009-08-12 08:53:56 51°26.898 2°49.331 203.5 6.4 204 21.3
2009-08-12 08:54:56 51°26.766 2°49.318 176.2 9.5 178 18.4
2009-08-12 08:55:56 51°26.587 2°49.335 173.2 11.2 176 19.9
2009-08-12 08:56:56 51°26.399 2°49.352 174.6 11.4 177 21.1
2009-08-12 08:57:56 51°26.209 2°49.363 175.9 11.4 178 22.4
2009-08-12 08:58:56 51°26.018 2°49.374 174.7 11.5 178 22.7
2009-08-12 08:59:56 51°25.829 2°49.387 174.9 11.3 179 22.4
2009-08-12 09:00:56 51°25.64 2°49.399 173.3 11.3 176 22.3
2009-08-12 09:01:56 51°25.453 2°49.43 169.9 11.3 173 22.1
2009-08-12 09:02:56 51°25.266 2°49.468 169.6 11.3 174 21.7
2009-08-12 09:03:56 51°25.079 2°49.504 170 11.3 172 21.4
2009-08-12 09:04:56 51°24.89 2°49.536 170.3 11.5 174 21.8
2009-08-12 09:05:56 51°24.699 2°49.565 171.7 11.6 175 21.6
2009-08-12 09:06:56 51°24.509 2°49.598 170.1 11.4 172 21.5
2009-08-12 09:07:56 51°24.318 2°49.635 169.8 11.5 173 21.5
2009-08-12 09:08:56 51°24.131 2°49.671 170.3 11.5 175 21.6
2009-08-12 09:09:56 51°23.941 2°49.707 170.2 11.4 173 20.9
2009-08-12 09:10:56 51°23.794 2°49.729 172.5 6.4 177 21.9
2009-08-12 09:11:56 51°23.719 2°49.67 238 4.9 240 21.9
2009-08-12 09:12:56 51°23.745 2°49.542 314.8 8.2 309 21.5
2009-08-12 09:13:56 51°23.86 2°49.322 316 11.6 310 21.3
2009-08-12 09:14:56 51°23.953 2°49.056 289.2 11.6 283 21.8
2009-08-12 09:15:56 51°23.969 2°48.742 272.3 12 270 20
2009-08-12 09:16:56 51°23.959 2°48.422 268.5 12.1 266 17.6
2009-08-12 09:17:56 51°23.949 2°48.101 269.9 12.1 267 16.3
2009-08-12 09:18:56 51°23.945 2°47.778 271.2 12.2 268 21.4
2009-08-12 09:19:56 51°23.942 2°47.457 270.9 12 269 24.2
2009-08-12 09:20:56 51°23.942 2°47.139 271.8 11.9 270 23.7
2009-08-12 09:21:56 51°23.935 2°46.82 268.4 12 266 26.3
2009-08-12 09:22:56 51°23.918 2°46.5 267.9 12.1 266 26.5
2009-08-12 09:23:56 51°23.904 2°46.18 268.3 12.1 266 26.6
2009-08-12 09:24:56 51°23.89 2°45.86 268.3 12 266 26.2
2009-08-12 09:25:56 51°23.875 2°45.538 268.6 12.2 266 26.1
2009-08-12 09:26:56 51°23.862 2°45.215 269.4 12.1 270 25
2009-08-12 09:27:56 51°23.863 2°44.894 273 12.1 271 25.8
2009-08-12 09:28:56 51°23.872 2°44.588 278.8 10.9 276 25.7
2009-08-12 09:29:56 51°23.899 2°44.348 287.6 6.6 284 24.8
2009-08-12 09:30:56 51°23.918 2°44.243 297.5 2.2 292 25.8
2009-08-12 09:31:56 51°23.922 2°44.217 338 0.3 259 25.9
2009-08-12 09:32:56 51°23.922 2°44.208 357.2 0.4 245 25.4
2009-08-12 09:33:56 51°23.923 2°44.205 27.2 1.7 19 25.3
2009-08-12 09:34:56 51°23.935 2°44.214 60.2 0.1 312 25.2
2009-08-12 09:35:56 51°23.933 2°44.217 89.1 0.5 121 25.2
2009-08-12 09:36:56 51°23.926 2°44.232 106.6 0.9 131 25.9
2009-08-12 09:37:56 51°23.918 2°44.253 101.5 0.9 113 25.9
2009-08-12 09:38:56 51°23.913 2°44.278 90.5 1 101 26
2009-08-12 09:39:56 51°23.915 2°44.305 68 1 66 23.3
2009-08-12 09:40:56 51°23.924 2°44.324 51.8 0.7 37 26.9
2009-08-12 09:41:56 51°23.928 2°44.322 25.6 0.3 271 25.4
2009-08-12 09:42:56 51°23.929 2°44.311 4.7 0.5 274 23.6
2009-08-12 09:43:56 51°23.928 2°44.297 349.1 0.5 259 24.1
2009-08-12 09:44:56 51°23.925 2°44.285 338 0.5 252 25.3
2009-08-12 09:45:56 51°23.922 2°44.275 337 0.4 243 25.5
2009-08-12 09:46:56 51°23.919 2°44.267 340.7 0.5 189 25.7
2009-08-12 09:47:58 51°23.897 2°44.262 10.4 1.2 197 4.7
2009-08-12 09:48:58 51°23.906 2°44.282 63.6 1.9 69 25.9
2009-08-12 09:49:57 51°23.915 2°44.321 55.3 1.4 44 26.4
2009-08-12 09:50:56 51°23.923 2°44.327 26.9 0.4 276 26.8
2009-08-12 09:51:56 51°23.915 2°44.315 12.9 0.7 220 26.5
2009-08-12 09:52:56 51°23.906 2°44.305 2.9 0.7 220 26
2009-08-12 09:53:56 51°23.898 2°44.295 353.8 0.6 213 25.2
2009-08-12 09:54:56 51°23.889 2°44.287 349.4 0.6 213 25.6
2009-08-12 09:55:56 51°23.881 2°44.279 349 0.6 218 26.1
2009-08-12 09:56:56 51°23.882 2°44.267 359.4 0.7 322 26.1
2009-08-12 09:57:56 51°23.895 2°44.255 12.8 0.5 305 26.2
2009-08-12 09:58:56 51°23.9 2°44.248 30.9 1.5 23 25.9
2009-08-12 09:59:56 51°23.911 2°44.291 80.3 1.4 88 26
2009-08-12 10:00:56 51°23.913 2°44.321 73.4 0.7 91 25.9
2009-08-12 10:01:56 51°23.907 2°44.336 95.4 0.6 133 25.5
2009-08-12 10:02:56 51°23.901 2°44.356 84.5 1.4 94 25.3
2009-08-12 10:03:56 51°23.908 2°44.381 48.9 0.8 42 25.8
2009-08-12 10:04:56 51°23.92 2°44.384 28.4 0.6 353 25.8
2009-08-12 10:05:56 51°23.922 2°44.376 11 0.4 277 26.2
2009-08-12 10:06:56 51°23.923 2°44.362 352.7 0.5 262 26.2
2009-08-12 10:07:56 51°23.92 2°44.347 341.1 0.6 238 26.6
2009-08-12 10:08:56 51°23.918 2°44.331 337.3 0.7 279 26.1
2009-08-12 10:09:56 51°23.918 2°44.314 337.2 0.5 254 26.5
2009-08-12 10:10:56 51°23.913 2°44.298 334.6 0.6 247 25.7
2009-08-12 10:11:56 51°23.908 2°44.285 339 0.6 241 26.1
2009-08-12 10:12:56 51°23.902 2°44.273 342.6 0.6 230 26.1
2009-08-12 10:13:56 51°23.896 2°44.264 349.2 0.6 222 26.3
2009-08-12 10:14:56 51°23.888 2°44.256 350.3 0.6 216 26
2009-08-12 10:15:56 51°23.879 2°44.247 351.9 0.7 208 26.5
2009-08-12 10:16:56 51°23.869 2°44.24 353.8 0.9 193 26.4
2009-08-12 10:17:56 51°23.871 2°44.234 18 1 4 26.2
2009-08-12 10:18:56 51°23.885 2°44.24 44.3 0.6 25 26.4
2009-08-12 10:19:56 51°23.896 2°44.265 66.6 1.4 76 26.5
2009-08-12 10:20:56 51°23.904 2°44.297 51.3 1.1 45 25
2009-08-12 10:21:56 51°23.919 2°44.313 38.6 0.8 19 26.3
2009-08-12 10:22:56 51°23.926 2°44.306 16.1 0.7 303 23
2009-08-12 10:23:56 51°23.929 2°44.289 357.5 0.7 277 24.9
2009-08-12 10:24:56 51°23.928 2°44.268 343.8 0.7 252 25.1
2009-08-12 10:25:56 51°23.923 2°44.248 331.7 0.7 246 26.1
2009-08-12 10:26:56 51°23.918 2°44.231 332 0.7 240 26.4
2009-08-12 10:27:56 51°23.913 2°44.215 336.4 0.7 270 26.3
2009-08-12 10:28:56 51°23.944 2°44.192 4.6 3.9 351 25.3
2009-08-12 10:29:56 51°24.051 2°44.168 8.4 7.4 359 25.9
2009-08-12 10:30:56 51°24.179 2°44.19 17.3 7.9 9 25.2
2009-08-12 10:31:56 51°24.308 2°44.223 16.1 7.9 10 24.6
2009-08-12 10:32:56 51°24.415 2°44.238 8.2 4.4 353 20.1
2009-08-12 10:33:56 51°24.458 2°44.208 351.2 2 327 21.7
2009-08-12 10:34:56 51°24.478 2°44.179 345.3 1.3 307 22.2
2009-08-12 10:35:56 51°24.484 2°44.151 336.7 1 277 23.8
2009-08-12 10:36:56 51°24.483 2°44.124 327.1 1 254 23.4
2009-08-12 10:37:56 51°24.482 2°44.093 317.3 1.5 271 22.4
2009-08-12 10:38:56 51°24.485 2°44.029 292.3 3.1 273 22.8
2009-08-12 10:39:56 51°24.47 2°43.931 247.8 4.3 241 25.4
2009-08-12 10:40:56 51°24.417 2°43.828 234.1 5.5 231 25.5
2009-08-12 10:41:56 51°24.354 2°43.703 233.9 6.4 232 25.3
2009-08-12 10:42:56 51°24.285 2°43.566 233.4 6.8 231 24.9
2009-08-12 10:43:56 51°24.209 2°43.432 228.6 6.9 226 23.4
2009-08-12 10:44:56 51°24.123 2°43.286 228.3 8.1 227 25.9
2009-08-12 10:45:56 51°24.028 2°43.119 229.1 8.6 227 26.1
2009-08-12 10:46:56 51°23.933 2°42.95 229.8 8.5 229 26.7
2009-08-12 10:47:56 51°23.838 2°42.782 229.6 8.5 228 26.9
2009-08-12 10:48:56 51°23.742 2°42.613 226.5 8.5 225 25.6
2009-08-12 10:49:56 51°23.639 2°42.457 223.5 8.6 223 25.8
2009-08-12 10:50:56 51°23.535 2°42.301 224.2 8.6 224 24.3
2009-08-12 10:51:56 51°23.432 2°42.144 223.8 8.5 223 26.4
2009-08-12 10:52:56 51°23.33 2°41.989 224.1 8.5 224 27.4
2009-08-12 10:53:56 51°23.223 2°41.824 223.7 9.1 224 26.6
2009-08-12 10:54:56 51°23.115 2°41.658 224.2 9 223 27
2009-08-12 10:55:56 51°23.006 2°41.493 224.7 9 225 27
2009-08-12 10:56:56 51°22.898 2°41.325 223.9 9.1 224 28.1
2009-08-12 10:57:56 51°22.785 2°41.151 224.2 9.7 225 28.7
2009-08-12 10:58:56 51°22.668 2°40.971 224.5 9.8 224 28.2
2009-08-12 10:59:56 51°22.542 2°40.809 213.6 9.7 215 29
2009-08-12 11:00:56 51°22.405 2°40.671 210.4 9.8 213 26.9
2009-08-12 11:01:56 51°22.278 2°40.552 200.5 8.1 203 28.3
2009-08-12 11:02:56 51°22.155 2°40.49 191.7 7.5 197 26.9
2009-08-12 11:03:56 51°22.05 2°40.448 179.4 5.7 186 27.2
2009-08-12 11:04:56 51°21.973 2°40.49 122.7 5.3 137 27.2
2009-08-12 11:05:56 51°21.925 2°40.664 96.6 8.5 102 26.1
2009-08-12 11:06:56 51°21.912 2°40.898 85.7 8.9 86 26.1
2009-08-12 11:07:56 51°21.938 2°41.125 71.8 7.3 74 27.2
2009-08-12 11:08:56 51°21.976 2°41.266 56.7 5.7 58 27.2
2009-08-12 11:09:56 51°22.044 2°41.398 50.2 6.8 47 26.7
2009-08-12 11:10:56 51°22.129 2°41.536 46.7 6.8 42 26.7
2009-08-12 11:11:56 51°22.192 2°41.621 39.7 3.9 36 27
2009-08-12 11:12:56 51°22.242 2°41.656 23.8 3 11 26.7
2009-08-12 11:13:56 51°22.314 2°41.661 9.7 6.3 359 23.9
2009-08-12 11:14:56 51°22.431 2°41.66 4.3 6.8 353 28.2
2009-08-12 11:15:56 51°22.514 2°41.613 346.8 4.7 331 28.3
2009-08-12 11:16:56 51°22.575 2°41.555 354 3.8 340 28.8
2009-08-12 11:17:56 51°22.625 2°41.57 33.7 3 27 29.4
2009-08-12 11:18:56 51°22.676 2°41.579 10.6 3.3 355 29.6
2009-08-12 11:19:56 51°22.731 2°41.555 354.7 3.6 338 29.5
2009-08-12 11:20:56 51°22.777 2°41.51 342 2.8 320 27.9
2009-08-12 11:21:56 51°22.808 2°41.458 330.6 2.5 307 27.7
2009-08-12 11:22:56 51°22.843 2°41.426 17.5 2.7 10 27.5
2009-08-12 11:23:56 51°22.848 2°41.495 102.3 4 118 27.1
2009-08-12 11:24:56 51°22.778 2°41.582 137.7 7 150 27.3
2009-08-12 11:25:56 51°22.667 2°41.691 141.3 7.8 151 28.9
2009-08-12 11:26:56 51°22.558 2°41.779 142.2 7.4 153 28.7
2009-08-12 11:27:56 51°22.441 2°41.877 143.1 8.3 155 26
2009-08-12 11:28:56 51°22.334 2°41.955 146.5 5.9 159 24.2
2009-08-12 11:29:56 51°22.253 2°42.005 148.7 5.6 160 25.4
2009-08-12 11:30:56 51°22.141 2°42.122 133.5 10.3 140 25
2009-08-12 11:31:56 51°22.008 2°42.323 127.8 11.2 139 25.2
2009-08-12 11:32:56 51°21.877 2°42.534 128.1 11.4 134 23.1
2009-08-12 11:33:56 51°21.744 2°42.743 129 11.2 136 18.7
2009-08-12 11:34:56 51°21.607 2°42.948 129.3 11.3 138 19.6
2009-08-12 11:35:56 51°21.469 2°43.155 130 11.4 138 21.2
2009-08-12 11:36:56 51°21.33 2°43.362 130.9 11.3 135 22.8
2009-08-12 11:37:56 51°21.194 2°43.571 131 11.3 135 20.8
2009-08-12 11:38:56 51°21.057 2°43.778 130.7 11.4 137 23.2
2009-08-12 11:39:56 51°20.92 2°43.984 130.4 11.2 134 25
2009-08-12 11:40:56 51°20.782 2°44.19 131.3 11.4 141 26.8
2009-08-12 11:41:56 51°20.648 2°44.391 129.2 10.9 133 26.3
2009-08-12 11:42:56 51°20.514 2°44.591 131 10.9 134 26.5
2009-08-12 11:43:56 51°20.387 2°44.8 123.2 10.8 127 25.1
2009-08-12 11:44:56 51°20.296 2°45.047 111.7 10.7 118 23.8
2009-08-12 11:45:56 51°20.211 2°45.296 114 10.7 120 22.5
2009-08-12 11:46:56 51°20.127 2°45.542 114.8 10.7 118 20.5
2009-08-12 11:47:56 51°20.04 2°45.784 111.9 10.4 125 16
2009-08-12 11:48:56 51°19.954 2°46.024 114.9 10.6 117 13.8
2009-08-12 11:49:56 51°19.863 2°46.265 115.1 10.6 123 15.1
2009-08-12 11:50:56 51°19.769 2°46.505 116.9 10.8 121 17.4
2009-08-12 11:51:56 51°19.671 2°46.745 116.9 10.8 123 19.9
2009-08-12 11:52:56 51°19.574 2°46.991 114.6 10.9 122 20.9
2009-08-12 11:53:56 51°19.476 2°47.233 116.1 10.8 123 21
2009-08-12 11:54:56 51°19.378 2°47.476 115 10.8 120 21.3
2009-08-12 11:55:56 51°19.28 2°47.718 114.5 10.7 124 20.1
2009-08-12 11:56:56 51°19.184 2°47.961 114.4 10.6 121 18.3
2009-08-12 11:57:56 51°19.089 2°48.204 115.2 10.9 120 16.7
2009-08-12 11:58:56 51°18.992 2°48.444 115.1 10.8 120 15
2009-08-12 11:59:56 51°18.899 2°48.688 114.8 10.8 118 13.9
2009-08-12 12:00:56 51°18.807 2°48.934 114.8 10.9 121 11.2
2009-08-12 12:01:56 51°18.714 2°49.178 115.8 10.9 121 10.9
2009-08-12 12:02:56 51°18.619 2°49.421 115.7 10.6 122 10.6
2009-08-12 12:03:56 51°18.525 2°49.662 115.7 10.6 120 12
2009-08-12 12:04:56 51°18.428 2°49.905 114.6 11 124 13.4
2009-08-12 12:05:56 51°18.33 2°50.15 114.9 11.3 126 14.2
2009-08-12 12:06:56 51°18.232 2°50.396 115.1 11.1 124 13.9
2009-08-12 12:07:56 51°18.136 2°50.641 116.1 10.8 119 13.3
2009-08-12 12:08:56 51°18.035 2°50.879 119.6 10.8 126 12.4
2009-08-12 12:09:56 51°17.91 2°51.097 127.6 11.2 135 11.5
2009-08-12 12:10:56 51°17.78 2°51.313 126.4 11.3 135 10.3
2009-08-12 12:11:56 51°17.651 2°51.533 128.6 11.1 130 9.7
2009-08-12 12:12:56 51°17.499 2°51.716 144.5 11.6 150 10.3
2009-08-12 12:13:56 51°17.323 2°51.857 148.5 12.1 154 10.3
2009-08-12 12:14:56 51°17.163 2°52.032 136 11.4 145 10.8
2009-08-12 12:15:56 51°17.016 2°52.231 134.7 11.7 140 10.6
2009-08-12 12:16:56 51°16.86 2°52.415 140.6 11.6 143 10.1
2009-08-12 12:17:56 51°16.696 2°52.585 143.5 11.8 149 10.2
2009-08-12 12:18:56 51°16.528 2°52.747 145.9 11.9 148 11.8
2009-08-12 12:19:56 51°16.361 2°52.907 147 11.6 151 12.2
2009-08-12 12:20:56 51°16.192 2°53.058 147.6 11.7 152 12
2009-08-12 12:21:56 51°16.022 2°53.207 148.4 11.6 151 11.6
2009-08-12 12:22:56 51°15.852 2°53.352 147.7 11.5 152 12
2009-08-12 12:23:56 51°15.683 2°53.496 147.5 11.4 149 11.1
2009-08-12 12:24:56 51°15.518 2°53.651 144 11.4 147 10.4
2009-08-12 12:25:56 51°15.361 2°53.822 140.1 11.4 146 10
2009-08-12 12:26:56 51°15.206 2°53.993 141.9 11.3 145 9.4
2009-08-12 12:27:56 51°15.053 2°54.158 141.7 11.3 148 8.7
2009-08-12 12:28:56 51°14.9 2°54.334 139.9 11.5 146 9.3
2009-08-12 12:29:56 51°14.748 2°54.518 140.4 11.4 142 10
2009-08-12 12:30:56 51°14.6 2°54.709 136.6 11.5 137 10.2
2009-08-12 12:31:56 51°14.461 2°54.911 137.5 11.4 139 10.5
2009-08-12 12:32:56 51°14.331 2°55.128 131.9 11 133 11.3
2009-08-12 12:33:56 51°14.218 2°55.317 137.1 8.9 139 11.4
2009-08-12 12:34:56 51°14.1 2°55.431 155.4 8.1 156 10.9
2009-08-12 12:35:56 51°13.986 2°55.513 156.4 6.6 155 11.2
2009-08-12 12:36:56 51°13.886 2°55.585 156.6 6.5 156 11.3
2009-08-12 12:37:56 51°13.798 2°55.653 150.9 5.3 149 11.6
2009-08-12 12:38:56 51°13.74 2°55.743 126.1 4.5 125 11.6
2009-08-12 12:39:56 51°13.706 2°55.842 115.7 3.7 114 8.6
2009-08-12 12:40:56 51°13.69 2°55.899 125.5 0.7 121 8.5
2009-08-12 12:41:57 51°13.687 2°55.904 130.7 0.2 83 8.6